sensor_id;sensor_type;location;lat;lon;timestamp;pressure;altitude;pressure_sealevel;temperature;humidity
45369;BME280;51342;55.250;37.668;2023-06-14T00:01:19;99995.47;;;8.67;67.01
45369;BME280;51342;55.250;37.668;2023-06-14T00:03:53;99976.53;;;8.66;66.80
45369;BME280;51342;55.250;37.668;2023-06-14T00:06:25;99980.22;;;8.70;66.61
45369;BME280;51342;55.250;37.668;2023-06-14T00:11:46;99981.13;;;8.70;66.65
45369;BME280;51342;55.250;37.668;2023-06-14T00:14:17;99981.59;;;8.65;66.92
45369;BME280;51342;55.250;37.668;2023-06-14T00:16:48;99992.59;;;8.62;66.84
45369;BME280;51342;55.250;37.668;2023-06-14T00:19:20;99991.59;;;8.60;66.96
45369;BME280;51342;55.250;37.668;2023-06-14T00:21:52;99989.56;;;8.56;66.98
45369;BME280;51342;55.250;37.668;2023-06-14T00:24:23;99990.16;;;8.52;66.92
45369;BME280;51342;55.250;37.668;2023-06-14T00:26:55;99991.94;;;8.53;67.05
45369;BME280;51342;55.250;37.668;2023-06-14T00:29:27;99988.25;;;8.49;67.23
45369;BME280;51342;55.250;37.668;2023-06-14T00:31:58;99990.50;;;8.45;67.21
45369;BME280;51342;55.250;37.668;2023-06-14T00:34:31;99980.47;;;8.36;67.44
45369;BME280;51342;55.250;37.668;2023-06-14T00:37:03;99986.03;;;8.42;67.49
45369;BME280;51342;55.250;37.668;2023-06-14T00:39:34;99979.91;;;8.40;67.50
45369;BME280;51342;55.250;37.668;2023-06-14T00:42:06;99986.50;;;8.37;67.30
45369;BME280;51342;55.250;37.668;2023-06-14T00:44:37;99981.78;;;8.31;67.41
45369;BME280;51342;55.250;37.668;2023-06-14T00:47:09;99984.72;;;8.36;67.50
45369;BME280;51342;55.250;37.668;2023-06-14T00:49:40;99979.66;;;8.37;67.30
45369;BME280;51342;55.250;37.668;2023-06-14T00:52:12;99985.34;;;8.33;67.13
45369;BME280;51342;55.250;37.668;2023-06-14T00:54:43;99985.16;;;8.30;67.57
45369;BME280;51342;55.250;37.668;2023-06-14T00:57:16;99985.63;;;8.24;67.57
45369;BME280;51342;55.250;37.668;2023-06-14T00:59:49;99984.13;;;8.28;67.49
45369;BME280;51342;55.250;37.668;2023-06-14T01:02:21;99980.47;;;8.24;67.24
45369;BME280;51342;55.250;37.668;2023-06-14T01:04:53;99981.03;;;8.20;67.50
45369;BME280;51342;55.250;37.668;2023-06-14T01:07:46;99977.69;;;8.10;67.87
45369;BME280;51342;55.250;37.668;2023-06-14T01:10:31;99987.09;;;8.09;67.72
45369;BME280;51342;55.250;37.668;2023-06-14T01:13:37;99982.72;;;8.08;67.98
45369;BME280;51342;55.250;37.668;2023-06-14T01:16:10;99980.25;;;8.10;68.20
45369;BME280;51342;55.250;37.668;2023-06-14T01:18:41;99974.31;;;8.11;67.63
45369;BME280;51342;55.250;37.668;2023-06-14T01:21:23;99981.94;;;8.09;67.67
45369;BME280;51342;55.250;37.668;2023-06-14T01:23:55;99982.81;;;8.10;68.03
45369;BME280;51342;55.250;37.668;2023-06-14T01:26:26;99987.88;;;8.08;67.94
45369;BME280;51342;55.250;37.668;2023-06-14T01:29:00;99981.94;;;8.09;68.28
45369;BME280;51342;55.250;37.668;2023-06-14T01:31:32;99984.75;;;8.12;68.50
45369;BME280;51342;55.250;37.668;2023-06-14T01:34:12;99985.63;;;8.13;68.28
45369;BME280;51342;55.250;37.668;2023-06-14T01:36:44;99987.44;;;8.14;68.39
45369;BME280;51342;55.250;37.668;2023-06-14T01:39:17;99981.38;;;8.13;68.93
45369;BME280;51342;55.250;37.668;2023-06-14T01:41:49;99985.63;;;8.13;68.87
45369;BME280;51342;55.250;37.668;2023-06-14T01:44:23;99985.53;;;8.11;69.14
45369;BME280;51342;55.250;37.668;2023-06-14T01:46:56;99985.75;;;8.14;69.46
45369;BME280;51342;55.250;37.668;2023-06-14T01:49:28;99988.66;;;8.19;69.15
45369;BME280;51342;55.250;37.668;2023-06-14T01:51:59;99977.78;;;8.23;68.97
45369;BME280;51342;55.250;37.668;2023-06-14T01:54:31;99978.78;;;8.25;69.42
45369;BME280;51342;55.250;37.668;2023-06-14T01:57:02;99987.94;;;8.33;69.09
45369;BME280;51342;55.250;37.668;2023-06-14T01:59:34;99985.06;;;8.40;69.25
45369;BME280;51342;55.250;37.668;2023-06-14T02:02:06;99977.50;;;8.43;69.58
45369;BME280;51342;55.250;37.668;2023-06-14T02:04:37;99979.16;;;8.55;69.87
45369;BME280;51342;55.250;37.668;2023-06-14T02:07:08;99975.72;;;8.67;69.65
45369;BME280;51342;55.250;37.668;2023-06-14T02:09:43;99976.00;;;8.84;69.89
45369;BME280;51342;55.250;37.668;2023-06-14T02:12:14;99982.84;;;9.08;70.09
45369;BME280;51342;55.250;37.668;2023-06-14T02:14:45;99974.94;;;9.32;70.16
45369;BME280;51342;55.250;37.668;2023-06-14T02:17:17;99979.44;;;9.61;69.56
45369;BME280;51342;55.250;37.668;2023-06-14T02:19:48;99977.44;;;9.96;68.80
45369;BME280;51342;55.250;37.668;2023-06-14T02:22:19;99977.91;;;10.30;68.11
45369;BME280;51342;55.250;37.668;2023-06-14T02:24:53;99977.50;;;10.66;67.58
45369;BME280;51342;55.250;37.668;2023-06-14T02:27:24;99978.28;;;10.93;66.88
45369;BME280;51342;55.250;37.668;2023-06-14T02:29:55;99968.69;;;11.20;66.27
45369;BME280;51342;55.250;37.668;2023-06-14T02:32:27;99973.72;;;11.46;65.53
45369;BME280;51342;55.250;37.668;2023-06-14T02:34:58;99975.47;;;11.77;64.79
45369;BME280;51342;55.250;37.668;2023-06-14T02:37:29;99976.41;;;12.08;64.48
45369;BME280;51342;55.250;37.668;2023-06-14T02:40:01;99978.91;;;12.38;63.82
45369;BME280;51342;55.250;37.668;2023-06-14T02:42:32;99974.78;;;12.74;62.94
45369;BME280;51342;55.250;37.668;2023-06-14T02:45:04;99970.53;;;13.09;61.84
45369;BME280;51342;55.250;37.668;2023-06-14T02:47:35;99972.94;;;13.38;61.18
45369;BME280;51342;55.250;37.668;2023-06-14T02:50:07;99975.13;;;13.65;60.45
45369;BME280;51342;55.250;37.668;2023-06-14T02:52:39;99977.06;;;13.87;59.84
45369;BME280;51342;55.250;37.668;2023-06-14T02:55:13;99981.72;;;14.12;59.84
45369;BME280;51342;55.250;37.668;2023-06-14T02:57:45;99977.16;;;14.43;58.92
45369;BME280;51342;55.250;37.668;2023-06-14T03:00:19;99974.97;;;14.70;58.34
45369;BME280;51342;55.250;37.668;2023-06-14T03:02:52;99968.22;;;14.95;57.88
45369;BME280;51342;55.250;37.668;2023-06-14T03:05:25;99964.91;;;15.18;58.11
45369;BME280;51342;55.250;37.668;2023-06-14T03:07:59;99960.03;;;15.47;57.47
45369;BME280;51342;55.250;37.668;2023-06-14T03:10:31;99962.75;;;15.69;57.31
45369;BME280;51342;55.250;37.668;2023-06-14T03:13:04;99948.72;;;15.88;56.72
45369;BME280;51342;55.250;37.668;2023-06-14T03:15:36;99957.28;;;16.06;56.66
45369;BME280;51342;55.250;37.668;2023-06-14T03:18:08;99957.22;;;16.27;56.63
45369;BME280;51342;55.250;37.668;2023-06-14T03:20:41;99947.81;;;16.55;55.94
45369;BME280;51342;55.250;37.668;2023-06-14T03:23:13;99952.06;;;16.74;55.03
45369;BME280;51342;55.250;37.668;2023-06-14T03:25:45;99954.00;;;16.79;54.88
45369;BME280;51342;55.250;37.668;2023-06-14T03:28:18;99955.31;;;16.92;55.13
45369;BME280;51342;55.250;37.668;2023-06-14T03:30:50;99955.72;;;17.03;55.31
45369;BME280;51342;55.250;37.668;2023-06-14T03:33:21;99963.31;;;17.20;55.20
45369;BME280;51342;55.250;37.668;2023-06-14T03:35:53;99957.63;;;17.32;55.14
45369;BME280;51342;55.250;37.668;2023-06-14T03:38:24;99959.03;;;17.48;54.73
45369;BME280;51342;55.250;37.668;2023-06-14T03:40:56;99958.44;;;17.57;54.81
45369;BME280;51342;55.250;37.668;2023-06-14T03:43:27;99957.38;;;17.76;54.92
45369;BME280;51342;55.250;37.668;2023-06-14T03:46:01;99962.09;;;17.87;54.96
45369;BME280;51342;55.250;37.668;2023-06-14T03:48:34;99953.78;;;18.00;54.76
45369;BME280;51342;55.250;37.668;2023-06-14T03:51:07;99954.22;;;18.14;54.52
45369;BME280;51342;55.250;37.668;2023-06-14T03:53:39;99957.34;;;18.31;54.51
45369;BME280;51342;55.250;37.668;2023-06-14T03:56:10;99959.63;;;18.49;54.78
45369;BME280;51342;55.250;37.668;2023-06-14T03:58:47;99948.72;;;18.64;54.17
45369;BME280;51342;55.250;37.668;2023-06-14T04:01:18;99948.34;;;18.80;54.47
45369;BME280;51342;55.250;37.668;2023-06-14T04:03:50;99950.72;;;19.02;53.14
45369;BME280;51342;55.250;37.668;2023-06-14T04:06:21;99954.09;;;19.30;52.57
45369;BME280;51342;55.250;37.668;2023-06-14T04:08:53;99953.63;;;19.46;52.05
45369;BME280;51342;55.250;37.668;2023-06-14T04:11:24;99950.56;;;19.63;52.27
45369;BME280;51342;55.250;37.668;2023-06-14T04:13:58;99934.41;;;19.80;49.96
45369;BME280;51342;55.250;37.668;2023-06-14T04:16:30;99951.44;;;19.98;47.97
45369;BME280;51342;55.250;37.668;2023-06-14T04:19:03;99941.31;;;20.15;45.96
45369;BME280;51342;55.250;37.668;2023-06-14T04:21:35;99946.09;;;20.32;44.99
45369;BME280;51342;55.250;37.668;2023-06-14T04:24:08;99943.69;;;20.43;43.46
45369;BME280;51342;55.250;37.668;2023-06-14T04:26:45;99935.03;;;20.47;43.15
45369;BME280;51342;55.250;37.668;2023-06-14T04:29:20;99940.84;;;20.73;44.16
45369;BME280;51342;55.250;37.668;2023-06-14T04:32:00;99938.56;;;20.91;41.23
45369;BME280;51342;55.250;37.668;2023-06-14T04:34:33;99933.53;;;21.04;41.02
45369;BME280;51342;55.250;37.668;2023-06-14T04:37:06;99934.50;;;21.07;40.43
45369;BME280;51342;55.250;37.668;2023-06-14T04:39:42;99939.88;;;21.13;41.24
45369;BME280;51342;55.250;37.668;2023-06-14T04:42:14;99938.34;;;21.26;40.37
45369;BME280;51342;55.250;37.668;2023-06-14T04:44:47;99939.31;;;21.30;39.43
45369;BME280;51342;55.250;37.668;2023-06-14T04:47:20;99924.50;;;21.33;39.87
45369;BME280;51342;55.250;37.668;2023-06-14T04:49:52;99927.34;;;21.47;40.54
45369;BME280;51342;55.250;37.668;2023-06-14T04:52:26;99933.59;;;21.54;39.85
45369;BME280;51342;55.250;37.668;2023-06-14T04:54:59;99928.44;;;21.60;39.32
45369;BME280;51342;55.250;37.668;2023-06-14T04:57:31;99931.84;;;21.54;38.34
45369;BME280;51342;55.250;37.668;2023-06-14T05:00:05;99925.47;;;21.40;39.49
45369;BME280;51342;55.250;37.668;2023-06-14T05:02:37;99922.06;;;21.46;39.31
45369;BME280;51342;55.250;37.668;2023-06-14T05:05:10;99916.06;;;21.54;38.81
45369;BME280;51342;55.250;37.668;2023-06-14T05:07:42;99918.94;;;21.69;39.49
45369;BME280;51342;55.250;37.668;2023-06-14T05:10:14;99921.72;;;21.79;37.79
45369;BME280;51342;55.250;37.668;2023-06-14T05:12:46;99915.53;;;21.77;37.08
45369;BME280;51342;55.250;37.668;2023-06-14T05:15:21;99919.13;;;21.82;37.84
45369;BME280;51342;55.250;37.668;2023-06-14T05:17:56;99923.63;;;21.89;37.96
45369;BME280;51342;55.250;37.668;2023-06-14T05:20:28;99923.84;;;22.04;37.60
45369;BME280;51342;55.250;37.668;2023-06-14T05:23:01;99923.09;;;22.10;37.37
45369;BME280;51342;55.250;37.668;2023-06-14T05:25:33;99913.50;;;22.13;38.85
45369;BME280;51342;55.250;37.668;2023-06-14T05:28:06;99917.03;;;22.15;36.47
45369;BME280;51342;55.250;37.668;2023-06-14T05:30:39;99910.94;;;22.18;36.41
45369;BME280;51342;55.250;37.668;2023-06-14T05:33:11;99927.66;;;22.23;38.58
45369;BME280;51342;55.250;37.668;2023-06-14T05:35:44;99914.56;;;22.29;37.83
45369;BME280;51342;55.250;37.668;2023-06-14T05:38:16;99910.31;;;22.37;37.86
45369;BME280;51342;55.250;37.668;2023-06-14T05:40:47;99915.63;;;22.42;37.91
45369;BME280;51342;55.250;37.668;2023-06-14T05:43:20;99913.97;;;22.50;36.72
45369;BME280;51342;55.250;37.668;2023-06-14T05:45:52;99915.78;;;22.54;36.99
45369;BME280;51342;55.250;37.668;2023-06-14T05:48:24;99912.34;;;22.58;37.49
45369;BME280;51342;55.250;37.668;2023-06-14T05:50:56;99915.94;;;22.66;36.13
45369;BME280;51342;55.250;37.668;2023-06-14T05:53:29;99903.75;;;22.78;36.12
45369;BME280;51342;55.250;37.668;2023-06-14T05:56:03;99903.88;;;22.87;36.49
45369;BME280;51342;55.250;37.668;2023-06-14T05:58:34;99912.81;;;22.98;35.18
45369;BME280;51342;55.250;37.668;2023-06-14T06:01:08;99914.59;;;23.02;36.13
45369;BME280;51342;55.250;37.668;2023-06-14T06:03:42;99922.72;;;23.20;34.86
45369;BME280;51342;55.250;37.668;2023-06-14T06:06:18;99918.34;;;23.25;33.58
45369;BME280;51342;55.250;37.668;2023-06-14T06:08:51;99920.97;;;23.21;33.37
45369;BME280;51342;55.250;37.668;2023-06-14T06:11:25;99918.28;;;23.18;32.93
45369;BME280;51342;55.250;37.668;2023-06-14T06:13:58;99920.94;;;23.19;33.72
45369;BME280;51342;55.250;37.668;2023-06-14T06:16:30;99922.78;;;23.26;32.87
45369;BME280;51342;55.250;37.668;2023-06-14T06:21:56;99918.28;;;23.19;32.62
45369;BME280;51342;55.250;37.668;2023-06-14T06:24:27;99920.00;;;23.14;32.40
45369;BME280;51342;55.250;37.668;2023-06-14T06:26:59;99927.03;;;23.12;32.42
45369;BME280;51342;55.250;37.668;2023-06-14T06:29:31;99919.97;;;23.10;32.47
45369;BME280;51342;55.250;37.668;2023-06-14T06:32:02;99927.97;;;23.17;32.54
45369;BME280;51342;55.250;37.668;2023-06-14T06:34:34;99923.50;;;23.10;32.40
45369;BME280;51342;55.250;37.668;2023-06-14T06:37:07;99935.75;;;23.07;31.67
45369;BME280;51342;55.250;37.668;2023-06-14T06:39:38;99933.13;;;23.04;30.76
45369;BME280;51342;55.250;37.668;2023-06-14T06:42:10;99923.38;;;23.01;30.44
45369;BME280;51342;55.250;37.668;2023-06-14T06:44:42;99925.28;;;23.14;32.13
45369;BME280;51342;55.250;37.668;2023-06-14T06:47:13;99928.91;;;23.25;31.73
45369;BME280;51342;55.250;37.668;2023-06-14T06:49:45;99926.31;;;23.27;32.53
45369;BME280;51342;55.250;37.668;2023-06-14T06:52:16;99923.72;;;23.32;32.78
45369;BME280;51342;55.250;37.668;2023-06-14T06:54:47;99907.06;;;23.39;31.83
45369;BME280;51342;55.250;37.668;2023-06-14T06:57:20;99905.25;;;23.32;31.48
45369;BME280;51342;55.250;37.668;2023-06-14T06:59:53;99915.69;;;23.24;30.18
45369;BME280;51342;55.250;37.668;2023-06-14T07:02:25;99913.00;;;23.18;30.94
45369;BME280;51342;55.250;37.668;2023-06-14T07:04:56;99907.78;;;23.22;32.10
45369;BME280;51342;55.250;37.668;2023-06-14T07:07:27;99906.97;;;23.31;32.00
45369;BME280;51342;55.250;37.668;2023-06-14T07:09:59;99919.34;;;23.35;30.20
45369;BME280;51342;55.250;37.668;2023-06-14T07:12:31;99911.31;;;23.23;30.39
45369;BME280;51342;55.250;37.668;2023-06-14T07:15:08;99912.22;;;23.26;32.73
45369;BME280;51342;55.250;37.668;2023-06-14T07:17:40;99904.38;;;23.33;31.86
45369;BME280;51342;55.250;37.668;2023-06-14T07:20:12;99905.25;;;23.35;30.04
45369;BME280;51342;55.250;37.668;2023-06-14T07:22:45;99904.31;;;23.30;30.08
45369;BME280;51342;55.250;37.668;2023-06-14T07:25:17;99904.31;;;23.31;30.81
45369;BME280;51342;55.250;37.668;2023-06-14T07:27:51;99890.38;;;23.43;32.04
45369;BME280;51342;55.250;37.668;2023-06-14T07:30:22;99901.00;;;23.49;29.32
45369;BME280;51342;55.250;37.668;2023-06-14T07:32:56;99898.25;;;23.40;29.97
45369;BME280;51342;55.250;37.668;2023-06-14T07:35:40;99904.38;;;23.36;29.60
45369;BME280;51342;55.250;37.668;2023-06-14T07:38:12;99899.97;;;23.36;28.98
45369;BME280;51342;55.250;37.668;2023-06-14T07:40:43;99902.56;;;23.28;31.08
45369;BME280;51342;55.250;37.668;2023-06-14T07:43:15;99894.59;;;23.25;29.16
45369;BME280;51342;55.250;37.668;2023-06-14T07:45:46;99893.75;;;23.28;28.76
45369;BME280;51342;55.250;37.668;2023-06-14T07:48:18;99888.53;;;23.34;30.51
45369;BME280;51342;55.250;37.668;2023-06-14T07:50:49;99882.31;;;23.27;30.52
45369;BME280;51342;55.250;37.668;2023-06-14T07:53:21;99880.50;;;23.20;31.94
45369;BME280;51342;55.250;37.668;2023-06-14T07:55:53;99884.84;;;23.18;31.39
45369;BME280;51342;55.250;37.668;2023-06-14T07:58:24;99897.19;;;23.19;31.72
45369;BME280;51342;55.250;37.668;2023-06-14T08:01:08;99883.19;;;23.28;32.22
45369;BME280;51342;55.250;37.668;2023-06-14T08:03:39;99885.88;;;23.34;32.14
45369;BME280;51342;55.250;37.668;2023-06-14T08:06:12;99882.47;;;23.46;31.23
45369;BME280;51342;55.250;37.668;2023-06-14T08:08:43;99882.53;;;23.55;31.35
45369;BME280;51342;55.250;37.668;2023-06-14T08:11:14;99885.22;;;23.61;31.65
45369;BME280;51342;55.250;37.668;2023-06-14T08:13:46;99886.13;;;23.62;31.36
45369;BME280;51342;55.250;37.668;2023-06-14T08:16:17;99886.19;;;23.68;31.62
45369;BME280;51342;55.250;37.668;2023-06-14T08:18:49;99885.31;;;23.66;30.05
45369;BME280;51342;55.250;37.668;2023-06-14T08:21:20;99882.59;;;23.61;30.18
45369;BME280;51342;55.250;37.668;2023-06-14T08:23:51;99891.44;;;23.65;29.32
45369;BME280;51342;55.250;37.668;2023-06-14T08:26:24;99881.75;;;23.62;30.34
45369;BME280;51342;55.250;37.668;2023-06-14T08:29:12;99872.94;;;23.63;29.92
45369;BME280;51342;55.250;37.668;2023-06-14T08:31:43;99876.47;;;23.62;29.37
45369;BME280;51342;55.250;37.668;2023-06-14T08:34:16;99882.63;;;23.63;30.51
45369;BME280;51342;55.250;37.668;2023-06-14T08:36:47;99872.97;;;23.69;29.38
45369;BME280;51342;55.250;37.668;2023-06-14T08:39:19;99878.31;;;23.75;30.38
45369;BME280;51342;55.250;37.668;2023-06-14T08:41:52;99879.22;;;23.82;30.76
45369;BME280;51342;55.250;37.668;2023-06-14T08:44:24;99880.19;;;23.92;29.70
45369;BME280;51342;55.250;37.668;2023-06-14T08:46:56;99880.19;;;23.90;28.27
45369;BME280;51342;55.250;37.668;2023-06-14T08:49:31;99877.56;;;23.95;29.74
45369;BME280;51342;55.250;37.668;2023-06-14T08:52:05;99871.41;;;23.94;27.86
45369;BME280;51342;55.250;37.668;2023-06-14T08:54:40;99874.00;;;23.93;27.02
45369;BME280;51342;55.250;37.668;2023-06-14T08:57:14;99868.69;;;23.85;27.24
45369;BME280;51342;55.250;37.668;2023-06-14T08:59:48;99874.78;;;23.76;26.77
45369;BME280;51342;55.250;37.668;2023-06-14T09:02:23;99863.28;;;23.70;27.57
45369;BME280;51342;55.250;37.668;2023-06-14T09:04:56;99876.59;;;23.77;27.72
45369;BME280;51342;55.250;37.668;2023-06-14T09:07:30;99868.66;;;23.79;28.60
45369;BME280;51342;55.250;37.668;2023-06-14T09:10:10;99862.50;;;23.82;29.39
45369;BME280;51342;55.250;37.668;2023-06-14T09:12:43;99864.28;;;23.87;28.86
45369;BME280;51342;55.250;37.668;2023-06-14T09:15:14;99862.53;;;23.86;27.23
45369;BME280;51342;55.250;37.668;2023-06-14T09:17:46;99861.63;;;23.81;27.94
45369;BME280;51342;55.250;37.668;2023-06-14T09:20:17;99852.81;;;23.79;27.45
45369;BME280;51342;55.250;37.668;2023-06-14T09:22:49;99860.75;;;23.84;29.51
45369;BME280;51342;55.250;37.668;2023-06-14T09:25:21;99855.50;;;23.90;28.20
45369;BME280;51342;55.250;37.668;2023-06-14T09:27:53;99864.34;;;23.98;27.87
45369;BME280;51342;55.250;37.668;2023-06-14T09:30:25;99856.44;;;23.99;28.04
45369;BME280;51342;55.250;37.668;2023-06-14T09:32:56;99848.53;;;24.04;27.97
45369;BME280;51342;55.250;37.668;2023-06-14T09:35:28;99844.19;;;24.12;26.99
45369;BME280;51342;55.250;37.668;2023-06-14T09:38:02;99847.72;;;24.16;26.75
45369;BME280;51342;55.250;37.668;2023-06-14T09:40:34;99849.50;;;24.20;27.02
45369;BME280;51342;55.250;37.668;2023-06-14T09:43:07;99840.72;;;24.24;28.09
45369;BME280;51342;55.250;37.668;2023-06-14T09:45:42;99844.22;;;24.20;26.74
45369;BME280;51342;55.250;37.668;2023-06-14T09:48:16;99836.25;;;24.14;27.58
45369;BME280;51342;55.250;37.668;2023-06-14T09:50:50;99838.03;;;24.21;29.03
45369;BME280;51342;55.250;37.668;2023-06-14T09:53:22;99834.53;;;24.23;28.04
45369;BME280;51342;55.250;37.668;2023-06-14T09:55:54;99841.59;;;24.23;27.59
45369;BME280;51342;55.250;37.668;2023-06-14T09:58:28;99826.59;;;24.25;27.06
45369;BME280;51342;55.250;37.668;2023-06-14T10:01:00;99833.66;;;24.23;27.50
45369;BME280;51342;55.250;37.668;2023-06-14T10:03:33;99834.50;;;24.20;27.38
45369;BME280;51342;55.250;37.668;2023-06-14T10:06:06;99822.22;;;24.22;27.52
45369;BME280;51342;55.250;37.668;2023-06-14T10:08:40;99818.69;;;24.23;27.99
45369;BME280;51342;55.250;37.668;2023-06-14T10:11:13;99821.31;;;24.23;27.34
45369;BME280;51342;55.250;37.668;2023-06-14T10:13:45;99820.44;;;24.24;26.68
45369;BME280;51342;55.250;37.668;2023-06-14T10:16:28;99823.06;;;24.21;27.52
45369;BME280;51342;55.250;37.668;2023-06-14T10:19:07;99821.31;;;24.26;27.06
45369;BME280;51342;55.250;37.668;2023-06-14T10:22:06;99817.81;;;24.23;27.42
45369;BME280;51342;55.250;37.668;2023-06-14T10:24:42;99809.88;;;24.30;28.85
45369;BME280;51342;55.250;37.668;2023-06-14T10:27:14;99824.97;;;24.45;28.13
45369;BME280;51342;55.250;37.668;2023-06-14T10:32:28;99811.66;;;24.28;25.25
45369;BME280;51342;55.250;37.668;2023-06-14T10:35:04;99817.81;;;24.30;25.43
45369;BME280;51342;55.250;37.668;2023-06-14T10:37:36;99807.25;;;24.30;26.86
45369;BME280;51342;55.250;37.668;2023-06-14T10:40:07;99805.50;;;24.34;26.29
45369;BME280;51342;55.250;37.668;2023-06-14T10:42:51;99806.41;;;24.35;26.43
45369;BME280;51342;55.250;37.668;2023-06-14T10:45:23;99806.41;;;24.39;26.23
45369;BME280;51342;55.250;37.668;2023-06-14T10:47:57;99801.13;;;24.38;25.60
45369;BME280;51342;55.250;37.668;2023-06-14T10:50:28;99804.63;;;24.33;25.97
45369;BME280;51342;55.250;37.668;2023-06-14T10:53:00;99790.50;;;24.31;27.34
45369;BME280;51342;55.250;37.668;2023-06-14T10:55:52;99796.75;;;24.40;26.45
45369;BME280;51342;55.250;37.668;2023-06-14T10:58:23;99794.97;;;24.49;27.10
45369;BME280;51342;55.250;37.668;2023-06-14T11:00:55;99792.34;;;24.54;28.20
45369;BME280;51342;55.250;37.668;2023-06-14T11:03:52;99798.50;;;24.48;26.56
45369;BME280;51342;55.250;37.668;2023-06-14T11:06:28;99799.41;;;24.47;26.16
45369;BME280;51342;55.250;37.668;2023-06-14T11:09:58;99789.66;;;24.45;26.57
45369;BME280;51342;55.250;37.668;2023-06-14T11:12:22;99787.00;;;24.39;26.01
45369;BME280;51342;55.250;37.668;2023-06-14T11:14:56;99793.19;;;24.35;25.73
45369;BME280;51342;55.250;37.668;2023-06-14T11:17:27;99785.25;;;24.36;26.85
45369;BME280;51342;55.250;37.668;2023-06-14T11:20:11;99787.94;;;24.48;27.30
45369;BME280;51342;55.250;37.668;2023-06-14T11:22:47;99777.41;;;24.62;27.65
45369;BME280;51342;55.250;37.668;2023-06-14T11:25:18;99779.16;;;24.65;26.35
45369;BME280;51342;55.250;37.668;2023-06-14T11:27:50;99783.53;;;24.59;26.26
45369;BME280;51342;55.250;37.668;2023-06-14T11:30:22;99772.06;;;24.54;26.50
45369;BME280;51342;55.250;37.668;2023-06-14T11:32:55;99773.84;;;24.54;27.44
45369;BME280;51342;55.250;37.668;2023-06-14T11:35:27;99763.25;;;24.60;27.21
45369;BME280;51342;55.250;37.668;2023-06-14T11:37:58;99756.22;;;24.67;27.45
45369;BME280;51342;55.250;37.668;2023-06-14T11:40:31;99749.19;;;24.69;28.31
45369;BME280;51342;55.250;37.668;2023-06-14T11:43:02;99757.13;;;24.73;26.69
45369;BME280;51342;55.250;37.668;2023-06-14T11:45:34;99750.03;;;24.72;26.08
45369;BME280;51342;55.250;37.668;2023-06-14T11:48:06;99754.47;;;24.72;26.79
45369;BME280;51342;55.250;37.668;2023-06-14T11:50:38;99766.81;;;24.76;26.95
45369;BME280;51342;55.250;37.668;2023-06-14T11:53:10;99746.53;;;24.76;26.54
45369;BME280;51342;55.250;37.668;2023-06-14T11:55:41;99751.81;;;24.72;26.93
45369;BME280;51342;55.250;37.668;2023-06-14T11:58:15;99753.59;;;24.74;26.91
45369;BME280;51342;55.250;37.668;2023-06-14T12:00:49;99759.78;;;24.81;26.56
45369;BME280;51342;55.250;37.668;2023-06-14T12:03:24;99751.81;;;24.82;25.87
45369;BME280;51342;55.250;37.668;2023-06-14T12:08:38;99748.31;;;24.87;26.16
45369;BME280;51342;55.250;37.668;2023-06-14T12:11:13;99753.59;;;24.88;25.03
45369;BME280;51342;55.250;37.668;2023-06-14T12:13:46;99748.28;;;24.83;26.69
45369;BME280;51342;55.250;37.668;2023-06-14T12:16:19;99750.06;;;24.91;26.28
45369;BME280;51342;55.250;37.668;2023-06-14T12:18:53;99751.84;;;24.92;26.16
